sensor_id;sensor_type;location;lat;lon;timestamp;pressure;altitude;pressure_sealevel;temperature;humidity
20624;BME280;10471;42.736;23.346;2023-03-21T00:02:25;95384.78;;;11.36;100.00
20624;BME280;10471;42.736;23.346;2023-03-21T00:04:51;95388.53;;;11.30;100.00
20624;BME280;10471;42.736;23.346;2023-03-21T00:07:16;95397.09;;;11.17;100.00
20624;BME280;10471;42.736;23.346;2023-03-21T00:09:42;95392.47;;;11.04;100.00
20624;BME280;10471;42.736;23.346;2023-03-21T00:12:07;95394.16;;;10.90;100.00
20624;BME280;10471;42.736;23.346;2023-03-21T00:14:34;95398.44;;;10.86;100.00
20624;BME280;10471;42.736;23.346;2023-03-21T00:17:02;95391.81;;;10.84;100.00
20624;BME280;10471;42.736;23.346;2023-03-21T00:19:28;95397.63;;;10.86;100.00
20624;BME280;10471;42.736;23.346;2023-03-21T00:21:53;95388.91;;;10.90;100.00
20624;BME280;10471;42.736;23.346;2023-03-21T00:24:20;95390.16;;;10.98;100.00
20624;BME280;10471;42.736;23.346;2023-03-21T00:26:47;95395.75;;;10.91;100.00
20624;BME280;10471;42.736;23.346;2023-03-21T00:29:13;95392.50;;;10.99;100.00
20624;BME280;10471;42.736;23.346;2023-03-21T00:31:38;95396.19;;;10.98;100.00
20624;BME280;10471;42.736;23.346;2023-03-21T00:34:03;95392.81;;;10.93;100.00
20624;BME280;10471;42.736;23.346;2023-03-21T00:36:29;95389.34;;;10.97;100.00
20624;BME280;10471;42.736;23.346;2023-03-21T00:38:54;95397.88;;;10.89;100.00
20624;BME280;10471;42.736;23.346;2023-03-21T00:41:20;95400.00;;;10.82;100.00
20624;BME280;10471;42.736;23.346;2023-03-21T00:43:46;95393.66;;;10.88;100.00
20624;BME280;10471;42.736;23.346;2023-03-21T00:46:11;95390.00;;;10.84;100.00
20624;BME280;10471;42.736;23.346;2023-03-21T00:48:36;95385.50;;;10.85;100.00
20624;BME280;10471;42.736;23.346;2023-03-21T00:51:13;95382.66;;;10.76;100.00
20624;BME280;10471;42.736;23.346;2023-03-21T00:53:40;95379.97;;;10.81;100.00
20624;BME280;10471;42.736;23.346;2023-03-21T00:56:05;95384.00;;;10.74;100.00
20624;BME280;10471;42.736;23.346;2023-03-21T00:58:31;95385.91;;;10.68;100.00
20624;BME280;10471;42.736;23.346;2023-03-21T01:00:56;95382.03;;;10.56;100.00
20624;BME280;10471;42.736;23.346;2023-03-21T01:03:21;95384.47;;;10.47;100.00
20624;BME280;10471;42.736;23.346;2023-03-21T01:05:51;95384.53;;;10.38;100.00
20624;BME280;10471;42.736;23.346;2023-03-21T01:08:34;95388.03;;;10.23;100.00
20624;BME280;10471;42.736;23.346;2023-03-21T01:11:02;95378.38;;;10.04;100.00
20624;BME280;10471;42.736;23.346;2023-03-21T01:13:28;95380.53;;;9.92;100.00
20624;BME280;10471;42.736;23.346;2023-03-21T01:15:55;95372.63;;;10.02;100.00
20624;BME280;10471;42.736;23.346;2023-03-21T01:18:23;95383.63;;;10.09;100.00
20624;BME280;10471;42.736;23.346;2023-03-21T01:20:52;95372.56;;;10.12;100.00
20624;BME280;10471;42.736;23.346;2023-03-21T01:23:18;95373.41;;;10.02;100.00
20624;BME280;10471;42.736;23.346;2023-03-21T01:25:46;95373.69;;;10.01;100.00
20624;BME280;10471;42.736;23.346;2023-03-21T01:28:12;95370.50;;;9.94;100.00
20624;BME280;10471;42.736;23.346;2023-03-21T01:30:37;95372.94;;;9.80;100.00
20624;BME280;10471;42.736;23.346;2023-03-21T01:33:02;95372.16;;;9.80;100.00
20624;BME280;10471;42.736;23.346;2023-03-21T01:35:28;95369.50;;;9.85;100.00
20624;BME280;10471;42.736;23.346;2023-03-21T01:37:53;95365.00;;;9.85;100.00
20624;BME280;10471;42.736;23.346;2023-03-21T01:40:24;95364.78;;;9.82;100.00
20624;BME280;10471;42.736;23.346;2023-03-21T01:42:50;95367.47;;;9.72;100.00
20624;BME280;10471;42.736;23.346;2023-03-21T01:48:19;95375.03;;;9.83;100.00
20624;BME280;10471;42.736;23.346;2023-03-21T01:50:45;95375.88;;;9.74;100.00
20624;BME280;10471;42.736;23.346;2023-03-21T01:53:12;95372.72;;;9.67;100.00
20624;BME280;10471;42.736;23.346;2023-03-21T01:55:39;95375.63;;;9.66;100.00
20624;BME280;10471;42.736;23.346;2023-03-21T01:58:07;95381.91;;;9.70;100.00
20624;BME280;10471;42.736;23.346;2023-03-21T02:00:34;95374.88;;;9.60;100.00
20624;BME280;10471;42.736;23.346;2023-03-21T02:03:04;95369.06;;;9.63;100.00
20624;BME280;10471;42.736;23.346;2023-03-21T02:05:50;95375.41;;;9.52;100.00
20624;BME280;10471;42.736;23.346;2023-03-21T02:08:16;95374.13;;;9.45;100.00
20624;BME280;10471;42.736;23.346;2023-03-21T02:10:44;95371.75;;;9.43;100.00
20624;BME280;10471;42.736;23.346;2023-03-21T02:13:12;95371.22;;;9.46;100.00
20624;BME280;10471;42.736;23.346;2023-03-21T02:15:40;95374.63;;;9.52;100.00
20624;BME280;10471;42.736;23.346;2023-03-21T02:28:44;95355.44;;;9.56;100.00
20624;BME280;10471;42.736;23.346;2023-03-21T02:31:21;95358.31;;;9.55;100.00
20624;BME280;10471;42.736;23.346;2023-03-21T02:47:13;95354.47;;;9.13;100.00
20624;BME280;10471;42.736;23.346;2023-03-21T02:50:02;95355.53;;;9.07;100.00
20624;BME280;10471;42.736;23.346;2023-03-21T02:52:33;95355.56;;;9.02;100.00
20624;BME280;10471;42.736;23.346;2023-03-21T02:55:00;95353.72;;;8.92;100.00
20624;BME280;10471;42.736;23.346;2023-03-21T02:57:29;95355.84;;;8.90;100.00
20624;BME280;10471;42.736;23.346;2023-03-21T02:59:55;95361.09;;;8.80;100.00
20624;BME280;10471;42.736;23.346;2023-03-21T03:02:25;95358.22;;;8.67;100.00
20624;BME280;10471;42.736;23.346;2023-03-21T03:04:51;95360.84;;;8.67;100.00
20624;BME280;10471;42.736;23.346;2023-03-21T03:18:09;95357.69;;;8.65;100.00
20624;BME280;10471;42.736;23.346;2023-03-21T03:25:27;95370.81;;;8.50;100.00
20624;BME280;10471;42.736;23.346;2023-03-21T03:27:55;95374.75;;;8.52;100.00
20624;BME280;10471;42.736;23.346;2023-03-21T03:30:24;95372.94;;;8.58;100.00
20624;BME280;10471;42.736;23.346;2023-03-21T03:32:56;95372.91;;;8.38;100.00
20624;BME280;10471;42.736;23.346;2023-03-21T03:35:24;95366.56;;;8.19;100.00
20624;BME280;10471;42.736;23.346;2023-03-21T03:37:54;95362.03;;;7.95;100.00
20624;BME280;10471;42.736;23.346;2023-03-21T03:42:53;95365.47;;;8.00;100.00
20624;BME280;10471;42.736;23.346;2023-03-21T03:45:27;95372.78;;;7.93;100.00
20624;BME280;10471;42.736;23.346;2023-03-21T03:48:00;95363.03;;;7.79;100.00
20624;BME280;10471;42.736;23.346;2023-03-21T03:50:41;95364.06;;;7.78;100.00
20624;BME280;10471;42.736;23.346;2023-03-21T03:53:33;95366.47;;;7.84;100.00
20624;BME280;10471;42.736;23.346;2023-03-21T03:56:03;95371.75;;;7.94;100.00
20624;BME280;10471;42.736;23.346;2023-03-21T03:58:29;95371.75;;;7.94;100.00
20624;BME280;10471;42.736;23.346;2023-03-21T04:00:56;95369.59;;;7.86;100.00
20624;BME280;10471;42.736;23.346;2023-03-21T04:03:21;95372.22;;;7.86;100.00
20624;BME280;10471;42.736;23.346;2023-03-21T04:05:47;95379.56;;;7.80;100.00
20624;BME280;10471;42.736;23.346;2023-03-21T04:08:14;95367.50;;;7.79;100.00
20624;BME280;10471;42.736;23.346;2023-03-21T04:10:40;95370.38;;;7.77;100.00
20624;BME280;10471;42.736;23.346;2023-03-21T04:13:06;95372.19;;;7.72;100.00
20624;BME280;10471;42.736;23.346;2023-03-21T04:15:31;95370.59;;;7.71;100.00
20624;BME280;10471;42.736;23.346;2023-03-21T04:17:57;95361.19;;;7.75;100.00
20624;BME280;10471;42.736;23.346;2023-03-21T04:20:22;95369.06;;;7.80;100.00
20624;BME280;10471;42.736;23.346;2023-03-21T04:22:48;95376.66;;;7.71;100.00
20624;BME280;10471;42.736;23.346;2023-03-21T04:25:14;95376.66;;;7.71;100.00
20624;BME280;10471;42.736;23.346;2023-03-21T04:27:39;95367.97;;;7.71;100.00
20624;BME280;10471;42.736;23.346;2023-03-21T04:30:05;95356.69;;;7.65;100.00
20624;BME280;10471;42.736;23.346;2023-03-21T04:32:31;95361.09;;;7.55;100.00
20624;BME280;10471;42.736;23.346;2023-03-21T04:34:59;95355.28;;;7.43;100.00
20624;BME280;10471;42.736;23.346;2023-03-21T04:37:24;95355.47;;;7.31;100.00
20624;BME280;10471;42.736;23.346;2023-03-21T04:39:50;95357.28;;;7.21;100.00
20624;BME280;10471;42.736;23.346;2023-03-21T04:42:16;95369.31;;;7.17;100.00
20624;BME280;10471;42.736;23.346;2023-03-21T04:44:45;95368.22;;;7.13;100.00
20624;BME280;10471;42.736;23.346;2023-03-21T04:47:11;95364.78;;;7.08;100.00
20624;BME280;10471;42.736;23.346;2023-03-21T04:49:38;95362.44;;;7.06;100.00
20624;BME280;10471;42.736;23.346;2023-03-21T04:52:04;95366.38;;;7.09;100.00
20624;BME280;10471;42.736;23.346;2023-03-21T04:54:29;95373.97;;;7.10;100.00
20624;BME280;10471;42.736;23.346;2023-03-21T04:56:56;95369.81;;;7.14;100.00
20624;BME280;10471;42.736;23.346;2023-03-21T04:59:22;95366.44;;;7.18;100.00
20624;BME280;10471;42.736;23.346;2023-03-21T05:01:47;95366.75;;;7.27;100.00
20624;BME280;10471;42.736;23.346;2023-03-21T05:04:14;95369.91;;;7.34;100.00
20624;BME280;10471;42.736;23.346;2023-03-21T05:06:40;95373.06;;;7.36;100.00
20624;BME280;10471;42.736;23.346;2023-03-21T05:09:06;95378.38;;;7.46;100.00
20624;BME280;10471;42.736;23.346;2023-03-21T05:11:34;95384.69;;;7.55;100.00
20624;BME280;10471;42.736;23.346;2023-03-21T05:14:02;95377.38;;;7.62;100.00
20624;BME280;10471;42.736;23.346;2023-03-21T05:16:27;95378.41;;;7.56;100.00
20624;BME280;10471;42.736;23.346;2023-03-21T05:18:58;95370.03;;;7.54;100.00
20624;BME280;10471;42.736;23.346;2023-03-21T05:21:28;95373.13;;;7.51;100.00
20624;BME280;10471;42.736;23.346;2023-03-21T05:23:54;95376.81;;;7.55;100.00
20624;BME280;10471;42.736;23.346;2023-03-21T05:26:21;95378.41;;;7.56;100.00
20624;BME280;10471;42.736;23.346;2023-03-21T05:28:47;95374.47;;;7.53;100.00
20624;BME280;10471;42.736;23.346;2023-03-21T05:31:16;95377.91;;;7.59;100.00
20624;BME280;10471;42.736;23.346;2023-03-21T05:33:45;95380.00;;;7.62;100.00
20624;BME280;10471;42.736;23.346;2023-03-21T05:36:11;95381.34;;;7.64;100.00
20624;BME280;10471;42.736;23.346;2023-03-21T05:38:37;95381.88;;;7.71;100.00
20624;BME280;10471;42.736;23.346;2023-03-21T05:41:07;95385.31;;;7.77;100.00
20624;BME280;10471;42.736;23.346;2023-03-21T05:43:32;95385.88;;;7.83;100.00
20624;BME280;10471;42.736;23.346;2023-03-21T05:45:58;95385.38;;;7.96;100.00
20624;BME280;10471;42.736;23.346;2023-03-21T05:48:23;95380.16;;;8.06;100.00
20624;BME280;10471;42.736;23.346;2023-03-21T05:50:48;95374.44;;;8.19;100.00
20624;BME280;10471;42.736;23.346;2023-03-21T05:53:14;95364.78;;;8.35;100.00
20624;BME280;10471;42.736;23.346;2023-03-21T05:55:39;95364.50;;;8.51;100.00
20624;BME280;10471;42.736;23.346;2023-03-21T05:58:04;95356.09;;;8.69;100.00
20624;BME280;10471;42.736;23.346;2023-03-21T06:00:30;95351.91;;;8.88;100.00
20624;BME280;10471;42.736;23.346;2023-03-21T06:02:55;95355.56;;;9.02;100.00
20624;BME280;10471;42.736;23.346;2023-03-21T06:05:21;95357.88;;;9.18;100.00
20624;BME280;10471;42.736;23.346;2023-03-21T06:07:47;95351.53;;;9.34;100.00
20624;BME280;10471;42.736;23.346;2023-03-21T06:10:12;95350.97;;;9.52;100.00
20624;BME280;10471;42.736;23.346;2023-03-21T06:12:37;95351.41;;;9.74;100.00
20624;BME280;10471;42.736;23.346;2023-03-21T06:15:04;95352.63;;;9.91;100.00
20624;BME280;10471;42.736;23.346;2023-03-21T06:17:31;95355.22;;;10.06;100.00
20624;BME280;10471;42.736;23.346;2023-03-21T06:19:57;95358.53;;;10.26;100.00
20624;BME280;10471;42.736;23.346;2023-03-21T06:22:25;95360.22;;;10.45;100.00
20624;BME280;10471;42.736;23.346;2023-03-21T06:24:51;95349.00;;;10.68;100.00
20624;BME280;10471;42.736;23.346;2023-03-21T06:27:16;95358.91;;;10.81;100.00
20624;BME280;10471;42.736;23.346;2023-03-21T06:29:41;95353.56;;;10.91;100.00
20624;BME280;10471;42.736;23.346;2023-03-21T06:32:07;95349.88;;;10.87;100.00
20624;BME280;10471;42.736;23.346;2023-03-21T06:34:32;95357.78;;;10.87;100.00
20624;BME280;10471;42.736;23.346;2023-03-21T06:36:58;95351.50;;;10.83;100.00
20624;BME280;10471;42.736;23.346;2023-03-21T06:39:23;95355.69;;;10.89;100.00
20624;BME280;10471;42.736;23.346;2023-03-21T06:41:50;95356.00;;;10.83;100.00
20624;BME280;10471;42.736;23.346;2023-03-21T06:44:15;95353.13;;;10.79;100.00
20624;BME280;10471;42.736;23.346;2023-03-21T06:46:40;95351.03;;;10.76;100.00
20624;BME280;10471;42.736;23.346;2023-03-21T06:49:06;95352.53;;;10.87;100.00
20624;BME280;10471;42.736;23.346;2023-03-21T06:51:31;95356.88;;;11.02;100.00
20624;BME280;10471;42.736;23.346;2023-03-21T06:53:57;95360.19;;;11.17;100.00
20624;BME280;10471;42.736;23.346;2023-03-21T06:56:22;95371.34;;;11.32;100.00
20624;BME280;10471;42.736;23.346;2023-03-21T06:58:47;95359.28;;;11.50;100.00
20624;BME280;10471;42.736;23.346;2023-03-21T07:01:13;95363.94;;;11.63;100.00
20624;BME280;10471;42.736;23.346;2023-03-21T07:03:39;95368.59;;;11.71;100.00
20624;BME280;10471;42.736;23.346;2023-03-21T07:06:08;95375.31;;;11.81;100.00
20624;BME280;10471;42.736;23.346;2023-03-21T07:08:38;95376.19;;;11.95;100.00
20624;BME280;10471;42.736;23.346;2023-03-21T07:11:04;95374.66;;;11.94;99.43
20624;BME280;10471;42.736;23.346;2023-03-21T07:13:30;95365.09;;;11.98;99.65
20624;BME280;10471;42.736;23.346;2023-03-21T07:15:56;95364.38;;;12.11;98.70
20624;BME280;10471;42.736;23.346;2023-03-21T07:18:22;95371.09;;;12.22;100.00
20624;BME280;10471;42.736;23.346;2023-03-21T07:20:48;95373.06;;;12.35;99.85
20624;BME280;10471;42.736;23.346;2023-03-21T07:23:21;95370.03;;;12.42;96.88
20624;BME280;10471;42.736;23.346;2023-03-21T07:25:48;95371.25;;;12.49;93.95
20624;BME280;10471;42.736;23.346;2023-03-21T07:28:15;95365.81;;;12.59;92.70
20624;BME280;10471;42.736;23.346;2023-03-21T07:30:41;95364.84;;;12.55;93.73
20624;BME280;10471;42.736;23.346;2023-03-21T07:33:07;95362.69;;;12.57;95.84
20624;BME280;10471;42.736;23.346;2023-03-21T07:35:33;95364.03;;;12.73;94.12
20624;BME280;10471;42.736;23.346;2023-03-21T07:38:00;95362.47;;;12.90;95.55
20624;BME280;10471;42.736;23.346;2023-03-21T07:40:25;95362.13;;;13.10;92.84
20624;BME280;10471;42.736;23.346;2023-03-21T07:42:51;95360.19;;;13.29;87.32
20624;BME280;10471;42.736;23.346;2023-03-21T07:45:16;95364.91;;;13.18;84.69
20624;BME280;10471;42.736;23.346;2023-03-21T07:47:46;95358.63;;;13.28;88.37
20624;BME280;10471;42.736;23.346;2023-03-21T07:50:13;95357.09;;;13.40;87.00
20624;BME280;10471;42.736;23.346;2023-03-21T07:52:38;95369.25;;;13.55;85.20
20624;BME280;10471;42.736;23.346;2023-03-21T07:55:04;95369.56;;;13.53;82.80
20624;BME280;10471;42.736;23.346;2023-03-21T07:57:30;95369.28;;;13.68;82.45
20624;BME280;10471;42.736;23.346;2023-03-21T07:59:55;95366.41;;;13.78;82.43
20624;BME280;10471;42.736;23.346;2023-03-21T08:02:21;95361.44;;;13.76;80.08
20624;BME280;10471;42.736;23.346;2023-03-21T08:04:46;95363.75;;;14.05;80.31
20624;BME280;10471;42.736;23.346;2023-03-21T08:07:12;95362.69;;;14.33;80.12
20624;BME280;10471;42.736;23.346;2023-03-21T08:09:37;95362.00;;;14.62;75.95
20624;BME280;10471;42.736;23.346;2023-03-21T08:12:04;95359.31;;;14.76;75.09
20624;BME280;10471;42.736;23.346;2023-03-21T08:14:29;95349.84;;;14.83;70.15
20624;BME280;10471;42.736;23.346;2023-03-21T08:16:55;95352.28;;;14.58;68.57
20624;BME280;10471;42.736;23.346;2023-03-21T08:19:20;95356.91;;;14.88;68.89
20624;BME280;10471;42.736;23.346;2023-03-21T08:21:47;95359.38;;;14.49;67.44
20624;BME280;10471;42.736;23.346;2023-03-21T08:24:13;95356.19;;;14.60;67.11
20624;BME280;10471;42.736;23.346;2023-03-21T08:26:39;95355.69;;;14.72;66.01
20624;BME280;10471;42.736;23.346;2023-03-21T08:29:05;95349.84;;;14.83;65.01
20624;BME280;10471;42.736;23.346;2023-03-21T08:31:31;95350.03;;;14.87;65.02
20624;BME280;10471;42.736;23.346;2023-03-21T08:33:56;95345.59;;;14.82;65.16
20624;BME280;10471;42.736;23.346;2023-03-21T08:36:22;95333.78;;;14.66;67.33
20624;BME280;10471;42.736;23.346;2023-03-21T08:38:48;95331.97;;;14.75;67.76
20624;BME280;10471;42.736;23.346;2023-03-21T08:41:18;95339.84;;;14.80;66.28
20624;BME280;10471;42.736;23.346;2023-03-21T08:43:46;95342.78;;;14.79;67.81
20624;BME280;10471;42.736;23.346;2023-03-21T08:46:12;95334.53;;;14.58;66.97
20624;BME280;10471;42.736;23.346;2023-03-21T08:48:37;95341.03;;;14.74;69.65
20624;BME280;10471;42.736;23.346;2023-03-21T08:51:04;95346.19;;;15.01;66.66
20624;BME280;10471;42.736;23.346;2023-03-21T08:53:30;95350.91;;;15.04;68.18
20624;BME280;10471;42.736;23.346;2023-03-21T08:55:55;95358.00;;;15.17;66.46
20624;BME280;10471;42.736;23.346;2023-03-21T08:58:20;95343.75;;;15.26;67.00
20624;BME280;10471;42.736;23.346;2023-03-21T09:00:46;95337.13;;;15.46;66.84
20624;BME280;10471;42.736;23.346;2023-03-21T09:03:11;95337.94;;;15.55;65.57
20624;BME280;10471;42.736;23.346;2023-03-21T09:05:37;95333.72;;;15.54;65.98
20624;BME280;10471;42.736;23.346;2023-03-21T09:08:03;95333.44;;;15.64;65.45
20624;BME280;10471;42.736;23.346;2023-03-21T09:10:29;95330.66;;;15.69;65.37
20624;BME280;10471;42.736;23.346;2023-03-21T09:12:55;95327.88;;;15.74;65.58
20624;BME280;10471;42.736;23.346;2023-03-21T09:15:26;95328.38;;;15.84;64.99
20624;BME280;10471;42.736;23.346;2023-03-21T09:17:53;95317.84;;;15.71;65.10
20624;BME280;10471;42.736;23.346;2023-03-21T09:20:22;95328.81;;;15.77;64.54
20624;BME280;10471;42.736;23.346;2023-03-21T09:22:54;95319.13;;;15.81;64.64
20624;BME280;10471;42.736;23.346;2023-03-21T09:25:21;95321.38;;;15.96;63.50
20624;BME280;10471;42.736;23.346;2023-03-21T09:27:48;95315.09;;;15.92;63.51
20624;BME280;10471;42.736;23.346;2023-03-21T09:30:16;95315.59;;;15.94;63.29
20624;BME280;10471;42.736;23.346;2023-03-21T09:32:43;95305.78;;;16.12;62.33
20624;BME280;10471;42.736;23.346;2023-03-21T09:35:16;95307.06;;;16.31;62.06
20624;BME280;10471;42.736;23.346;2023-03-21T09:37:43;95297.69;;;16.59;62.13
20624;BME280;10471;42.736;23.346;2023-03-21T09:48:55;95288.47;;;17.44;57.58
20624;BME280;10471;42.736;23.346;2023-03-21T09:51:25;95277.13;;;17.56;56.86
20624;BME280;10471;42.736;23.346;2023-03-21T09:53:54;95269.41;;;17.63;55.88
20624;BME280;10471;42.736;23.346;2023-03-21T09:56:21;95267.31;;;17.76;56.35
20624;BME280;10471;42.736;23.346;2023-03-21T09:58:51;95270.50;;;17.90;56.80
20624;BME280;10471;42.736;23.346;2023-03-21T10:01:23;95268.44;;;17.96;55.29
20624;BME280;10471;42.736;23.346;2023-03-21T10:03:58;95279.84;;;18.05;55.79
20624;BME280;10471;42.736;23.346;2023-03-21T10:06:25;95284.44;;;17.96;55.48
20624;BME280;10471;42.736;23.346;2023-03-21T10:08:57;95278.66;;;17.65;54.87
20624;BME280;10471;42.736;23.346;2023-03-21T10:11:27;95272.13;;;17.83;54.57
20624;BME280;10471;42.736;23.346;2023-03-21T10:14:02;95267.78;;;17.99;55.02
20624;BME280;10471;42.736;23.346;2023-03-21T10:18:54;95257.56;;;18.30;52.40
20624;BME280;10471;42.736;23.346;2023-03-21T10:21:23;95251.44;;;18.49;53.59
20624;BME280;10471;42.736;23.346;2023-03-21T10:23:54;95244.09;;;18.79;51.24
20624;BME280;10471;42.736;23.346;2023-03-21T10:26:22;95239.91;;;19.10;50.79
20624;BME280;10471;42.736;23.346;2023-03-21T10:28:49;95247.28;;;19.37;49.41
20624;BME280;10471;42.736;23.346;2023-03-21T10:31:18;95244.84;;;19.44;48.41
20624;BME280;10471;42.736;23.346;2023-03-21T10:33:47;95247.53;;;19.56;47.53
20624;BME280;10471;42.736;23.346;2023-03-21T10:36:16;95244.41;;;19.54;48.02
20624;BME280;10471;42.736;23.346;2023-03-21T10:38:46;95243.16;;;19.51;48.44
20624;BME280;10471;42.736;23.346;2023-03-21T10:41:13;95250.63;;;19.58;49.41
20624;BME280;10471;42.736;23.346;2023-03-21T10:43:39;95245.72;;;19.48;47.34
20624;BME280;10471;42.736;23.346;2023-03-21T10:46:18;95241.72;;;19.54;47.87
20624;BME280;10471;42.736;23.346;2023-03-21T10:48:52;95246.63;;;19.87;47.37
20624;BME280;10471;42.736;23.346;2023-03-21T10:51:26;95244.75;;;20.12;47.17
20624;BME280;10471;42.736;23.346;2023-03-21T10:54:03;95241.84;;;20.17;48.48
20624;BME280;10471;42.736;23.346;2023-03-21T10:56:34;95247.09;;;20.13;48.04
20624;BME280;10471;42.736;23.346;2023-03-21T10:59:02;95251.22;;;20.11;46.13
20624;BME280;10471;42.736;23.346;2023-03-21T11:01:40;95242.72;;;19.61;44.22
20624;BME280;10471;42.736;23.346;2023-03-21T11:04:13;95238.72;;;19.55;44.88
20624;BME280;10471;42.736;23.346;2023-03-21T11:06:42;95240.59;;;19.43;44.05
20624;BME280;10471;42.736;23.346;2023-03-21T11:09:17;95237.94;;;19.67;44.68
20624;BME280;10471;42.736;23.346;2023-03-21T11:12:11;95228.56;;;19.84;44.06
20624;BME280;10471;42.736;23.346;2023-03-21T11:14:38;95224.13;;;20.00;42.33
20624;BME280;10471;42.736;23.346;2023-03-21T11:22:13;95212.59;;;20.24;42.93
20624;BME280;10471;42.736;23.346;2023-03-21T11:24:40;95207.78;;;20.29;42.87
20624;BME280;10471;42.736;23.346;2023-03-21T11:27:07;95204.88;;;20.34;42.18
20624;BME280;10471;42.736;23.346;2023-03-21T11:29:35;95199.19;;;20.24;43.21
20624;BME280;10471;42.736;23.346;2023-03-21T11:35:32;95188.50;;;20.51;42.50
20624;BME280;10471;42.736;23.346;2023-03-21T11:37:58;95180.72;;;20.46;42.69
20624;BME280;10471;42.736;23.346;2023-03-21T11:40:28;95180.25;;;20.71;43.18
20624;BME280;10471;42.736;23.346;2023-03-21T11:45:22;95166.78;;;21.41;41.86
20624;BME280;10471;42.736;23.346;2023-03-21T11:47:51;95166.00;;;21.56;40.72
20624;BME280;10471;42.736;23.346;2023-03-21T11:53:26;95160.00;;;21.78;40.66
20624;BME280;10471;42.736;23.346;2023-03-21T11:56:18;95155.19;;;21.87;40.72
20624;BME280;10471;42.736;23.346;2023-03-21T12:02:25;95154.81;;;22.04;39.85
20624;BME280;10471;42.736;23.346;2023-03-21T12:04:37;95146.47;;;22.09;39.19
20624;BME280;10471;42.736;23.346;2023-03-21T12:10:05;95153.38;;;21.91;39.11
20624;BME280;10471;42.736;23.346;2023-03-21T12:15:52;95149.38;;;21.66;39.86
20624;BME280;10471;42.736;23.346;2023-03-21T12:21:19;95130.75;;;21.73;38.79
20624;BME280;10471;42.736;23.346;2023-03-21T12:24:05;95128.91;;;21.77;38.42
20624;BME280;10471;42.736;23.346;2023-03-21T12:43:11;95102.91;;;21.81;37.29
20624;BME280;10471;42.736;23.346;2023-03-21T12:45:43;95105.59;;;21.62;37.88
20624;BME280;10471;42.736;23.346;2023-03-21T12:48:50;95103.97;;;21.42;39.01
20624;BME280;10471;42.736;23.346;2023-03-21T12:51:23;95099.28;;;21.55;38.90
20624;BME280;10471;42.736;23.346;2023-03-21T12:57:07;95093.91;;;21.55;39.59
20624;BME280;10471;42.736;23.346;2023-03-21T12:59:40;95080.72;;;21.65;38.83
20624;BME280;10471;42.736;23.346;2023-03-21T13:02:30;95083.16;;;21.89;38.99
20624;BME280;10471;42.736;23.346;2023-03-21T13:05:03;95090.44;;;22.07;39.18
20624;BME280;10471;42.736;23.346;2023-03-21T13:07:35;95081.03;;;21.98;37.70
20624;BME280;10471;42.736;23.346;2023-03-21T13:10:05;95081.69;;;21.91;38.04
20624;BME280;10471;42.736;23.346;2023-03-21T13:13:03;95076.22;;;21.69;38.74
20624;BME280;10471;42.736;23.346;2023-03-21T13:15:42;95071.47;;;21.63;39.23
20624;BME280;10471;42.736;23.346;2023-03-21T13:24:03;95065.50;;;21.88;38.51
20624;BME280;10471;42.736;23.346;2023-03-21T13:26:36;95066.91;;;21.82;38.60
20624;BME280;10471;42.736;23.346;2023-03-21T13:29:20;95065.91;;;21.71;38.90
20624;BME280;10471;42.736;23.346;2023-03-21T13:31:48;95064.34;;;21.70;39.05
20624;BME280;10471;42.736;23.346;2023-03-21T13:34:14;95064.84;;;21.57;39.39
20624;BME280;10471;42.736;23.346;2023-03-21T13:36:44;95060.25;;;21.57;39.68
20624;BME280;10471;42.736;23.346;2023-03-21T13:39:19;95056.53;;;21.62;40.30
20624;BME280;10471;42.736;23.346;2023-03-21T13:41:48;95053.56;;;21.51;40.04
20624;BME280;10471;42.736;23.346;2023-03-21T13:44:21;95049.69;;;21.64;39.85
20624;BME280;10471;42.736;23.346;2023-03-21T13:47:02;95049.09;;;21.55;40.29
20624;BME280;10471;42.736;23.346;2023-03-21T13:49:31;95052.66;;;21.59;40.10
20624;BME280;10471;42.736;23.346;2023-03-21T13:51:59;95050.25;;;21.54;40.50
20624;BME280;10471;42.736;23.346;2023-03-21T13:57:00;95043.97;;;21.50;41.46
20624;BME280;10471;42.736;23.346;2023-03-21T13:59:44;95048.59;;;21.34;40.79
20624;BME280;10471;42.736;23.346;2023-03-21T14:02:23;95040.69;;;21.22;41.02
20624;BME280;10471;42.736;23.346;2023-03-21T14:04:57;95046.59;;;21.12;41.34
20624;BME280;10471;42.736;23.346;2023-03-21T14:07:27;95039.94;;;21.07;41.48
20624;BME280;10471;42.736;23.346;2023-03-21T14:10:03;95043.56;;;20.99;42.06
20624;BME280;10471;42.736;23.346;2023-03-21T14:12:35;95040.03;;;20.95;43.05
20624;BME280;10471;42.736;23.346;2023-03-21T14:15:11;95044.09;;;20.89;42.75
20624;BME280;10471;42.736;23.346;2023-03-21T14:17:38;95038.72;;;20.89;42.18
20624;BME280;10471;42.736;23.346;2023-03-21T14:20:34;95044.09;;;20.89;42.04
20624;BME280;10471;42.736;23.346;2023-03-21T14:23:04;95043.22;;;20.85;42.08
20624;BME280;10471;42.736;23.346;2023-03-21T14:25:36;95037.69;;;20.78;43.07
20624;BME280;10471;42.736;23.346;2023-03-21T14:28:12;95042.88;;;20.71;42.86
20624;BME280;10471;42.736;23.346;2023-03-21T14:30:40;95036.81;;;20.58;42.81
20624;BME280;10471;42.736;23.346;2023-03-21T14:33:17;95030.59;;;20.39;43.14
20624;BME280;10471;42.736;23.346;2023-03-21T14:35:45;95038.88;;;20.34;43.34
20624;BME280;10471;42.736;23.346;2023-03-21T14:38:23;95036.25;;;20.22;44.04
20624;BME280;10471;42.736;23.346;2023-03-21T14:40:54;95035.19;;;20.11;44.54
20624;BME280;10471;42.736;23.346;2023-03-21T14:43:22;95030.13;;;19.94;44.97
20624;BME280;10471;42.736;23.346;2023-03-21T14:45:53;95041.38;;;19.73;45.75
20624;BME280;10471;42.736;23.346;2023-03-21T14:48:20;95041.41;;;19.61;46.79